createdAt,value
2023-03-26T00:01:15.629Z,100395.91
2023-03-26T00:03:47.414Z,100404.72
2023-03-26T00:06:17.495Z,100398.66
2023-03-26T00:08:46.079Z,100407.88
2023-03-26T00:11:16.079Z,100424.44
2023-03-26T00:13:44.307Z,100431.81
2023-03-26T00:16:13.886Z,100423.53
2023-03-26T00:18:42.667Z,100418.34
2023-03-26T00:21:15.584Z,100420.22
2023-03-26T00:23:44.067Z,100413.88
2023-03-26T00:26:17.477Z,100413.16
2023-03-26T00:28:45.464Z,100417.59
2023-03-26T00:31:14.954Z,100411.91
2023-03-26T00:33:42.824Z,100417.50
2023-03-26T00:36:17.595Z,100424.06
2023-03-26T00:38:46.886Z,100421.38
2023-03-26T00:41:18.047Z,100428.94
2023-03-26T00:43:46.891Z,100440.91
2023-03-26T00:46:14.925Z,100430.56
2023-03-26T00:48:45.793Z,100421.75
2023-03-26T00:51:15.941Z,100408.34
2023-03-26T00:53:47.070Z,100406.09
2023-03-26T00:56:15.295Z,100409.41
2023-03-26T00:58:43.456Z,100397.19
2023-03-26T01:01:14.452Z,100394.53
2023-03-26T01:03:53.171Z,100392.06
2023-03-26T01:06:36.156Z,100380.41
2023-03-26T01:09:15.931Z,100386.91
2023-03-26T01:11:43.711Z,100375.47
2023-03-26T01:14:15.841Z,100384.84
2023-03-26T01:16:52.507Z,100380.41
2023-03-26T01:19:29.249Z,100382.22
2023-03-26T01:21:59.026Z,100389.16
2023-03-26T01:24:26.985Z,100393.47
2023-03-26T01:27:08.016Z,100381.66
2023-03-26T01:29:57.783Z,100364.41
2023-03-26T01:32:40.672Z,100365.66
2023-03-26T01:35:26.464Z,100377.59
2023-03-26T01:38:01.982Z,100372.31
2023-03-26T01:40:43.006Z,100347.69
2023-03-26T01:43:29.669Z,100341.59
2023-03-26T01:46:01.989Z,100338.59
2023-03-26T01:48:33.139Z,100335.81
2023-03-26T01:51:00.627Z,100341.06
2023-03-26T01:53:29.157Z,100326.94
2023-03-26T01:56:21.298Z,100336.50
2023-03-26T01:59:13.303Z,100327.69
2023-03-26T02:01:48.612Z,100325.38
2023-03-26T02:04:34.077Z,100344.59
2023-03-26T02:07:28.821Z,100329.03
2023-03-26T02:10:05.587Z,100332.47
2023-03-26T02:12:33.675Z,100332.63
2023-03-26T02:15:02.216Z,100344.59
2023-03-26T02:17:32.639Z,100336.56
2023-03-26T02:20:05.865Z,100339.44
2023-03-26T02:22:40.757Z,100352.50
2023-03-26T02:25:11.987Z,100350.78
2023-03-26T02:27:39.609Z,100358.09
2023-03-26T02:30:17.376Z,100363.38
2023-03-26T02:32:47.809Z,100374.78
2023-03-26T02:35:15.411Z,100382.66
2023-03-26T02:37:46.942Z,100374.78
2023-03-26T02:40:23.744Z,100363.50
2023-03-26T02:42:51.917Z,100366.09
2023-03-26T02:45:19.506Z,100383.47
2023-03-26T02:47:51.079Z,100372.31
2023-03-26T02:50:44.880Z,100380.28
2023-03-26T02:53:32.618Z,100368.00
2023-03-26T02:56:17.673Z,100370.63
2023-03-26T02:58:58.495Z,100363.50
2023-03-26T03:01:26.067Z,100363.41
2023-03-26T03:03:55.266Z,100360.16
2023-03-26T03:06:35.909Z,100365.41
2023-03-26T03:09:05.148Z,100351.38
2023-03-26T03:11:40.404Z,100357.31
2023-03-26T03:14:08.733Z,100344.94
2023-03-26T03:16:36.518Z,100348.47
2023-03-26T03:19:07.366Z,100351.06
2023-03-26T03:21:40.292Z,100353.66
2023-03-26T03:24:09.776Z,100345.19
2023-03-26T03:26:42.505Z,100352.16
2023-03-26T03:29:33.267Z,100343.50
2023-03-26T03:32:22.837Z,100350.59
2023-03-26T03:34:52.632Z,100335.63
2023-03-26T03:37:20.466Z,100325.19
2023-03-26T03:39:52.614Z,100321.06
2023-03-26T03:42:25.420Z,100334.06
2023-03-26T03:44:56.231Z,100340.38
2023-03-26T03:47:49.045Z,100354.09
2023-03-26T03:50:22.014Z,100354.25
2023-03-26T03:53:16.028Z,100340.25
2023-03-26T03:55:53.393Z,100344.00
2023-03-26T03:58:24.751Z,100342.25
2023-03-26T04:01:03.162Z,100336.97
2023-03-26T04:03:57.330Z,100335.13
2023-03-26T04:06:31.519Z,100357.88
2023-03-26T04:08:59.324Z,100349.09
2023-03-26T04:11:27.153Z,100366.44
2023-03-26T04:14:22.575Z,100360.44
2023-03-26T04:17:13.509Z,100356.16
2023-03-26T04:19:41.357Z,100354.44
2023-03-26T04:22:12.021Z,100338.69
2023-03-26T04:24:56.557Z,100335.16
2023-03-26T04:27:33.075Z,100341.28
2023-03-26T04:30:20.091Z,100344.72
2023-03-26T04:32:54.572Z,100331.59
2023-03-26T04:35:22.190Z,100336.06
2023-03-26T04:37:54.919Z,100333.34
2023-03-26T04:40:30.637Z,100332.44
2023-03-26T04:43:18.611Z,100342.03
2023-03-26T04:46:03.310Z,100335.91
2023-03-26T04:48:34.286Z,100331.63
2023-03-26T04:51:02.136Z,100331.66
2023-03-26T04:53:29.655Z,100339.47
2023-03-26T04:57:01.533Z,100352.53
2023-03-26T04:59:50.173Z,100344.03
2023-03-26T05:02:18.031Z,100358.00
2023-03-26T05:04:50.474Z,100355.31
2023-03-26T05:07:22.537Z,100350.88
2023-03-26T05:09:53.360Z,100352.63
2023-03-26T05:12:39.543Z,100342.09
2023-03-26T05:15:15.060Z,100353.44
2023-03-26T05:18:02.135Z,100347.25
2023-03-26T05:20:43.516Z,100335.03
2023-03-26T05:23:11.492Z,100341.94
2023-03-26T05:25:42.977Z,100336.63
2023-03-26T05:28:20.808Z,100346.16
2023-03-26T05:30:54.815Z,100332.91
2023-03-26T05:33:24.670Z,100337.25
2023-03-26T05:36:15.936Z,100343.25
2023-03-26T05:38:49.696Z,100338.94
2023-03-26T05:41:47.078Z,100342.34
2023-03-26T05:44:14.544Z,100332.94
2023-03-26T05:46:41.972Z,100346.91
2023-03-26T05:49:12.925Z,100353.72
2023-03-26T05:51:40.853Z,100348.44
2023-03-26T05:54:25.241Z,100327.34
2023-03-26T05:57:11.500Z,100347.31
2023-03-26T05:59:57.832Z,100346.22
2023-03-26T06:02:44.353Z,100345.38
2023-03-26T06:05:43.124Z,100345.28
2023-03-26T06:08:19.737Z,100348.56
2023-03-26T06:11:05.536Z,100346.81
2023-03-26T06:13:36.172Z,100339.59
2023-03-26T06:16:04.070Z,100344.63
2023-03-26T06:18:34.708Z,100344.53
2023-03-26T06:21:37.808Z,100352.28
2023-03-26T06:24:12.598Z,100352.19
2023-03-26T06:27:09.196Z,100343.38
2023-03-26T06:29:55.197Z,100328.06
2023-03-26T06:32:37.132Z,100327.75
2023-03-26T06:35:11.681Z,100332.13
2023-03-26T06:37:39.228Z,100331.25
2023-03-26T06:40:08.329Z,100333.28
2023-03-26T06:43:08.174Z,100328.34
2023-03-26T06:46:10.499Z,100330.28
2023-03-26T06:49:28.551Z,100334.41
2023-03-26T06:57:13.477Z,100334.69
2023-03-26T08:04:24.924Z,100231.03
2023-03-26T08:07:40.249Z,100228.88
2023-03-26T08:10:23.130Z,100222.19
2023-03-26T08:13:10.355Z,100229.38
2023-03-26T08:15:50.003Z,100218.72
2023-03-26T08:18:41.764Z,100210.88
2023-03-26T08:21:27.409Z,100203.56
2023-03-26T08:24:09.677Z,100210.66
2023-03-26T08:27:10.145Z,100204.88
2023-03-26T08:29:55.757Z,100212.50
2023-03-26T08:32:24.168Z,100221.13
2023-03-26T08:34:52.857Z,100224.59
2023-03-26T08:37:27.523Z,100210.06
2023-03-26T08:39:56.349Z,100216.09
2023-03-26T08:42:57.318Z,100209.31
2023-03-26T08:46:03.822Z,100196.69
2023-03-26T08:48:40.031Z,100189.03
2023-03-26T08:51:13.703Z,100182.50
2023-03-26T08:54:04.132Z,100174.41
2023-03-26T08:57:18.055Z,100171.59
2023-03-26T09:04:08.059Z,100160.22
2023-03-26T09:07:10.389Z,100148.00
2023-03-26T09:10:46.015Z,100150.34
2023-03-26T09:18:18.799Z,100137.28
2023-03-26T09:21:26.443Z,100138.63
2023-03-26T09:25:08.151Z,100129.03
2023-03-26T09:28:44.292Z,100125.06
2023-03-26T09:35:55.078Z,100118.63
2023-03-26T09:38:56.626Z,100125.13
2023-03-26T09:42:06.680Z,100135.22
2023-03-26T09:45:07.422Z,100135.06
2023-03-26T09:48:34.622Z,100120.31
2023-03-26T09:51:55.096Z,100118.69
2023-03-26T09:54:31.939Z,100114.72
2023-03-26T09:57:37.360Z,100115.88
2023-03-26T10:00:17.302Z,100117.03
2023-03-26T10:03:11.518Z,100113.44
2023-03-26T10:05:58.210Z,100116.28
2023-03-26T10:08:48.609Z,100115.34
2023-03-26T10:11:46.171Z,100115.47
2023-03-26T10:14:41.636Z,100105.38
2023-03-26T10:18:26.708Z,100114.38
2023-03-26T10:24:43.916Z,100095.84
2023-03-26T10:27:20.399Z,100083.03
2023-03-26T10:30:29.254Z,100092.47
2023-03-26T10:33:17.348Z,100075.72
2023-03-26T10:35:56.663Z,100066.00
2023-03-26T10:38:51.097Z,100073.69
2023-03-26T10:41:38.389Z,100073.78
2023-03-26T10:44:35.983Z,100073.47
2023-03-26T10:47:15.637Z,100061.31
2023-03-26T10:50:09.317Z,100059.34
2023-03-26T10:53:03.500Z,100052.41
2023-03-26T10:55:45.718Z,100038.13
2023-03-26T10:58:26.972Z,100035.69
2023-03-26T11:01:13.981Z,100044.50
2023-03-26T11:03:54.920Z,100043.31
2023-03-26T11:06:41.431Z,100037.38
2023-03-26T11:09:38.152Z,100042.19
2023-03-26T11:12:27.019Z,100036.69
2023-03-26T11:15:14.673Z,100050.19
2023-03-26T11:18:09.602Z,100044.28
2023-03-26T11:21:19.207Z,100040.19
2023-03-26T11:24:05.394Z,100028.97
2023-03-26T11:27:15.465Z,100027.81
2023-03-26T11:29:51.691Z,100017.00
2023-03-26T11:32:31.372Z,100005.13
2023-03-26T11:35:47.243Z,100002.16
2023-03-26T11:38:28.993Z,99981.59
2023-03-26T11:40:59.545Z,99982.63
2023-03-26T11:43:50.496Z,99980.53
2023-03-26T11:46:22.844Z,99994.19
2023-03-26T11:48:57.499Z,99994.84
2023-03-26T11:51:49.896Z,100003.50
2023-03-26T11:54:18.025Z,99996.63
2023-03-26T11:57:10.426Z,100001.69
2023-03-26T11:59:57.287Z,99995.13
2023-03-26T12:02:29.946Z,99983.25
2023-03-26T12:05:20.683Z,99965.38
2023-03-26T12:07:57.495Z,99958.41
2023-03-26T12:10:32.768Z,99946.81
2023-03-26T12:13:16.508Z,99940.09
2023-03-26T12:15:44.401Z,99919.91
2023-03-26T12:18:24.190Z,99910.66
2023-03-26T12:21:05.305Z,99903.22
2023-03-26T12:23:54.099Z,99906.88
2023-03-26T12:26:34.102Z,99908.94
2023-03-26T12:29:17.807Z,99909.47
2023-03-26T12:32:08.708Z,99902.78
2023-03-26T12:34:41.940Z,99891.34
2023-03-26T13:04:30.614Z,99837.13
2023-03-26T13:07:09.733Z,99829.50
2023-03-26T13:10:08.701Z,99821.22
2023-03-26T13:12:49.544Z,99807.69
2023-03-26T13:15:30.654Z,99808.75
2023-03-26T13:18:26.093Z,99812.34
2023-03-26T13:21:57.297Z,99805.22
2023-03-26T13:25:21.941Z,99797.41
2023-03-26T13:27:55.694Z,99797.47
2023-03-26T13:30:39.153Z,99788.63
2023-03-26T13:33:47.934Z,99783.53
2023-03-26T13:36:59.711Z,99763.97
2023-03-26T13:39:51.852Z,99762.72
2023-03-26T13:42:40.702Z,99764.06
2023-03-26T13:45:17.383Z,99758.72
2023-03-26T13:47:51.445Z,99756.91
2023-03-26T13:50:33.295Z,99742.25
2023-03-26T13:53:14.361Z,99732.72
2023-03-26T13:55:49.628Z,99717.06
2023-03-26T14:11:07.348Z,99667.81
2023-03-26T14:14:11.595Z,99661.94
2023-03-26T14:17:54.993Z,99655.59
2023-03-26T14:20:57.182Z,99655.75
2023-03-26T14:24:38.333Z,99649.22
2023-03-26T14:27:57.430Z,99637.88
2023-03-26T14:31:46.594Z,99617.59
2023-03-26T14:55:54.088Z,99593.28
2023-03-26T15:07:14.174Z,99567.81
2023-03-26T15:14:56.029Z,99549.44
2023-03-26T15:18:20.107Z,99545.31
2023-03-26T15:21:28.561Z,99539.31
2023-03-26T15:24:16.442Z,99537.81
2023-03-26T15:27:36.352Z,99535.88
2023-03-26T15:34:35.005Z,99539.06
2023-03-26T15:37:12.093Z,99546.28
2023-03-26T15:40:09.857Z,99534.41
2023-03-26T15:43:13.023Z,99535.19
2023-03-26T15:45:56.590Z,99527.75
2023-03-26T15:48:41.514Z,99529.69
2023-03-26T15:51:23.007Z,99536.97
2023-03-26T15:54:22.825Z,99542.28
2023-03-26T15:56:59.545Z,99548.13
2023-03-26T16:00:26.661Z,99550.91
2023-03-26T16:03:18.965Z,99554.38
2023-03-26T16:06:09.410Z,99561.59
2023-03-26T16:09:04.755Z,99564.09
2023-03-26T16:11:53.995Z,99565.47
2023-03-26T16:14:43.374Z,99549.22
2023-03-26T16:17:30.362Z,99559.91
2023-03-26T16:20:33.255Z,99555.81
2023-03-26T16:23:07.057Z,99555.19
2023-03-26T16:25:53.268Z,99570.66
2023-03-26T16:28:30.512Z,99571.97
2023-03-26T16:31:36.709Z,99563.19
2023-03-26T16:34:09.030Z,99555.72
2023-03-26T16:36:43.647Z,99548.16
2023-03-26T16:39:21.384Z,99561.84
2023-03-26T16:42:05.641Z,99570.50
2023-03-26T16:44:55.482Z,99564.69
2023-03-26T16:47:38.013Z,99564.88
2023-03-26T16:52:01.830Z,99564.09
2023-03-26T16:58:12.535Z,99563.19
2023-03-26T17:00:48.127Z,99577.84
2023-03-26T17:03:32.202Z,99591.44
2023-03-26T17:06:26.723Z,99566.56
2023-03-26T17:09:57.450Z,99489.47
2023-03-26T17:13:25.864Z,99478.00
2023-03-26T17:16:22.489Z,99481.13
2023-03-26T17:19:33.578Z,99469.56
2023-03-26T17:22:43.672Z,99472.50
2023-03-26T17:26:34.260Z,99468.75
2023-03-26T17:29:02.137Z,99458.56
2023-03-26T17:32:21.816Z,99446.53
2023-03-26T17:35:07.780Z,99445.66
2023-03-26T17:37:55.078Z,99451.31
2023-03-26T17:41:02.903Z,99450.91
2023-03-26T17:44:34.501Z,99442.06
2023-03-26T17:47:07.048Z,99419.00
2023-03-26T17:49:35.581Z,99402.63
2023-03-26T17:52:21.042Z,99378.88
2023-03-26T17:54:55.267Z,99381.41
2023-03-26T17:57:28.470Z,99406.69
2023-03-26T17:59:59.862Z,99421.69
2023-03-26T18:02:37.995Z,99425.50
2023-03-26T18:05:10.133Z,99436.56
2023-03-26T18:08:02.353Z,99448.13
2023-03-26T18:10:56.202Z,99454.41
2023-03-26T18:14:19.102Z,99458.59
2023-03-26T18:17:42.134Z,99476.56
2023-03-26T18:21:50.564Z,99463.69
2023-03-26T18:24:27.628Z,99459.84
2023-03-26T18:27:26.404Z,99429.97
2023-03-26T18:30:02.311Z,99418.63
2023-03-26T18:32:33.864Z,99396.84
2023-03-26T18:35:22.095Z,99378.72
2023-03-26T18:37:54.191Z,99388.28
2023-03-26T18:45:38.431Z,99425.41
2023-03-26T18:48:25.380Z,99425.09
2023-03-26T18:51:06.499Z,99433.31
2023-03-26T18:54:51.191Z,99435.75
2023-03-26T18:58:29.020Z,99446.91
2023-03-26T19:02:11.935Z,99431.88
2023-03-26T19:09:55.877Z,99412.53
2023-03-26T19:17:11.024Z,99445.34
2023-03-26T19:20:19.928Z,99456.56
2023-03-26T19:23:16.630Z,99475.34
2023-03-26T19:29:54.334Z,99498.78
2023-03-26T19:32:32.883Z,99507.88
2023-03-26T19:35:02.369Z,99499.63
2023-03-26T19:37:34.588Z,99489.03
2023-03-26T19:40:33.970Z,99479.34
2023-03-26T19:43:03.783Z,99481.53
2023-03-26T19:45:34.826Z,99483.66
2023-03-26T19:48:15.257Z,99472.16
2023-03-26T19:51:18.843Z,99474.69
2023-03-26T19:54:22.290Z,99465.16
2023-03-26T20:24:02.438Z,99426.13
2023-03-26T20:30:07.347Z,99431.63
2023-03-26T20:33:13.065Z,99419.75
2023-03-26T20:36:02.591Z,99441.63
2023-03-26T20:38:44.947Z,99441.56
2023-03-26T20:45:39.140Z,99444.00
2023-03-26T20:48:30.180Z,99434.75
2023-03-26T20:50:57.954Z,99436.16
2023-03-26T20:53:28.630Z,99433.56
2023-03-26T20:55:56.731Z,99422.31
2023-03-26T20:58:30.603Z,99426.13
2023-03-26T21:01:02.499Z,99426.22
2023-03-26T21:03:30.390Z,99416.34
2023-03-26T21:06:02.871Z,99423.91
2023-03-26T21:08:39.634Z,99421.66
2023-03-26T21:11:44.654Z,99427.97
2023-03-26T21:14:43.488Z,99428.41
2023-03-26T21:17:16.661Z,99417.84
2023-03-26T21:19:45.579Z,99420.47
2023-03-26T21:22:40.548Z,99415.91
2023-03-26T21:25:21.144Z,99412.78
2023-03-26T21:28:29.089Z,99400.72
2023-03-26T21:30:59.933Z,99373.28
2023-03-26T21:33:28.406Z,99373.16
2023-03-26T21:35:58.205Z,99365.78
2023-03-26T21:38:26.170Z,99373.47
2023-03-26T21:40:58.921Z,99368.09
2023-03-26T21:43:26.936Z,99359.63
2023-03-26T21:45:54.883Z,99356.59
2023-03-26T21:48:22.592Z,99354.28
2023-03-26T21:50:50.240Z,99351.47
2023-03-26T21:53:17.913Z,99336.66
2023-03-26T21:56:00.538Z,99340.47
2023-03-26T21:58:47.780Z,99331.94
2023-03-26T22:01:26.298Z,99331.16
2023-03-26T22:04:06.858Z,99322.88
2023-03-26T22:06:43.762Z,99318.81
2023-03-26T22:09:12.940Z,99305.22
2023-03-26T22:11:44.308Z,99307.97
2023-03-26T22:14:14.284Z,99302.59
2023-03-26T22:16:41.746Z,99294.03
2023-03-26T22:19:09.190Z,99289.09
2023-03-26T22:21:36.633Z,99296.75
2023-03-26T22:24:04.270Z,99277.88
2023-03-26T22:26:31.941Z,99284.19
2023-03-26T22:28:59.479Z,99291.00
2023-03-26T22:31:27.011Z,99288.38
2023-03-26T22:33:55.964Z,99291.59
2023-03-26T22:36:25.317Z,99282.88
2023-03-26T22:38:54.170Z,99275.59
2023-03-26T22:41:22.993Z,99273.47
2023-03-26T22:43:54.695Z,99277.16
2023-03-26T22:46:22.742Z,99279.84
2023-03-26T22:48:51.186Z,99279.38
2023-03-26T22:51:18.593Z,99278.25
2023-03-26T22:53:46.092Z,99270.97
2023-03-26T22:56:14.410Z,99271.13
2023-03-26T22:58:42.351Z,99270.06
2023-03-26T23:01:17.790Z,99262.97
2023-03-26T23:03:45.158Z,99277.69
2023-03-26T23:06:13.212Z,99278.44
2023-03-26T23:08:41.260Z,99274.72
2023-03-26T23:11:13.950Z,99270.50
2023-03-26T23:13:42.172Z,99267.88
2023-03-26T23:16:10.417Z,99264.69
2023-03-26T23:18:39.067Z,99258.19
2023-03-26T23:21:11.970Z,99256.25
2023-03-26T23:23:40.053Z,99246.91
2023-03-26T23:26:07.812Z,99244.50
2023-03-26T23:28:36.017Z,99249.78
2023-03-26T23:31:06.763Z,99243.56
2023-03-26T23:33:36.472Z,99249.03
2023-03-26T23:36:09.820Z,99252.16
2023-03-26T23:38:43.452Z,99243.09
2023-03-26T23:41:15.790Z,99248.84
2023-03-26T23:43:54.286Z,99254.22
2023-03-26T23:46:24.653Z,99262.00
2023-03-26T23:48:52.919Z,99273.56
2023-03-26T23:51:21.691Z,99272.28
2023-03-26T23:53:49.527Z,99273.03
2023-03-26T23:56:17.755Z,99272.50
2023-03-26T23:58:45.277Z,99265.22
